sensor_id;sensor_type;location;lat;lon;timestamp;pressure;altitude;pressure_sealevel;temperature;humidity
43818;BME280;29868;47.360;18.984;2024-02-14T15:03:30;62468.03;;;9.93;79.30
43818;BME280;29868;47.360;18.984;2024-02-14T15:05:56;62461.56;;;9.89;77.66
43818;BME280;29868;47.360;18.984;2024-02-14T15:08:22;62467.69;;;9.95;79.61
43818;BME280;29868;47.360;18.984;2024-02-14T15:10:52;62454.63;;;9.81;79.30
43818;BME280;29868;47.360;18.984;2024-02-14T15:13:21;62440.94;;;9.70;79.19
43818;BME280;29868;47.360;18.984;2024-02-14T15:15:46;62434.22;;;9.64;81.21
43818;BME280;29868;47.360;18.984;2024-02-14T15:18:12;62432.22;;;9.65;82.00
43818;BME280;29868;47.360;18.984;2024-02-14T15:20:37;62430.66;;;9.59;82.33
43818;BME280;29868;47.360;18.984;2024-02-14T15:23:03;62413.25;;;9.47;82.43
43818;BME280;29868;47.360;18.984;2024-02-14T15:25:29;62410.59;;;9.40;83.90
43818;BME280;29868;47.360;18.984;2024-02-14T15:27:54;62408.16;;;9.36;83.88
43818;BME280;29868;47.360;18.984;2024-02-14T15:30:25;62409.25;;;9.37;84.25
43818;BME280;29868;47.360;18.984;2024-02-14T15:33:09;62380.13;;;9.15;86.15
43818;BME280;29868;47.360;18.984;2024-02-14T15:35:56;62363.19;;;8.97;87.86
43818;BME280;29868;47.360;18.984;2024-02-14T15:38:23;62344.13;;;8.84;90.39
43818;BME280;29868;47.360;18.984;2024-02-14T15:40:50;62334.22;;;8.70;92.63
43818;BME280;29868;47.360;18.984;2024-02-14T15:43:19;62337.00;;;8.73;92.41
43818;BME280;29868;47.360;18.984;2024-02-14T15:45:45;62319.41;;;8.59;94.02
43818;BME280;29868;47.360;18.984;2024-02-14T15:48:10;62321.19;;;8.56;94.78
43818;BME280;29868;47.360;18.984;2024-02-14T15:50:38;62302.69;;;8.44;97.30
43818;BME280;29868;47.360;18.984;2024-02-14T15:53:04;62288.41;;;8.33;100.00
43818;BME280;29868;47.360;18.984;2024-02-14T15:55:31;62275.03;;;8.21;100.00
43818;BME280;29868;47.360;18.984;2024-02-14T15:57:56;62272.38;;;8.14;100.00
43818;BME280;29868;47.360;18.984;2024-02-14T16:00:24;62256.13;;;8.03;100.00
43818;BME280;29868;47.360;18.984;2024-02-14T16:02:52;62248.31;;;7.96;100.00
43818;BME280;29868;47.360;18.984;2024-02-14T16:05:18;62236.06;;;7.85;100.00
43818;BME280;29868;47.360;18.984;2024-02-14T16:07:44;62233.06;;;7.80;100.00
43818;BME280;29868;47.360;18.984;2024-02-14T16:10:09;62224.38;;;7.74;100.00
43818;BME280;29868;47.360;18.984;2024-02-14T16:12:35;62220.81;;;7.69;100.00
43818;BME280;29868;47.360;18.984;2024-02-14T16:15:02;62213.03;;;7.62;100.00
43818;BME280;29868;47.360;18.984;2024-02-14T16:17:28;62212.59;;;7.56;100.00
43818;BME280;29868;47.360;18.984;2024-02-14T16:19:54;62200.44;;;7.52;100.00
43818;BME280;29868;47.360;18.984;2024-02-14T16:22:19;62204.03;;;7.46;100.00
43818;BME280;29868;47.360;18.984;2024-02-14T16:24:45;62190.78;;;7.41;100.00
43818;BME280;29868;47.360;18.984;2024-02-14T16:27:12;62185.88;;;7.32;100.00
43818;BME280;29868;47.360;18.984;2024-02-14T16:29:38;62172.63;;;7.27;100.00
43818;BME280;29868;47.360;18.984;2024-02-14T16:32:07;62178.88;;;7.28;100.00
43818;BME280;29868;47.360;18.984;2024-02-14T16:34:35;62174.75;;;7.22;100.00
43818;BME280;29868;47.360;18.984;2024-02-14T16:37:00;62168.28;;;7.18;100.00
43818;BME280;29868;47.360;18.984;2024-02-14T16:39:26;62159.84;;;7.15;100.00
43818;BME280;29868;47.360;18.984;2024-02-14T16:41:51;62164.41;;;7.15;100.00
43818;BME280;29868;47.360;18.984;2024-02-14T16:44:17;62157.41;;;7.11;100.00
43818;BME280;29868;47.360;18.984;2024-02-14T16:46:42;62155.72;;;7.09;100.00
43818;BME280;29868;47.360;18.984;2024-02-14T16:49:07;62152.50;;;7.01;100.00
43818;BME280;29868;47.360;18.984;2024-02-14T16:51:35;62142.59;;;6.99;100.00
43818;BME280;29868;47.360;18.984;2024-02-14T16:54:00;62142.94;;;6.97;100.00
43818;BME280;29868;47.360;18.984;2024-02-14T16:56:26;62148.28;;;7.00;100.00
43818;BME280;29868;47.360;18.984;2024-02-14T16:58:56;62151.84;;;7.05;100.00
43818;BME280;29868;47.360;18.984;2024-02-14T17:01:21;62176.63;;;7.26;100.00
43818;BME280;29868;47.360;18.984;2024-02-14T17:03:47;62172.97;;;7.25;100.00
43818;BME280;29868;47.360;18.984;2024-02-14T17:06:12;62170.53;;;7.20;100.00
43818;BME280;29868;47.360;18.984;2024-02-14T17:08:38;62180.75;;;7.32;100.00
43818;BME280;29868;47.360;18.984;2024-02-14T17:11:04;62190.22;;;7.41;100.00
43818;BME280;29868;47.360;18.984;2024-02-14T17:13:29;62203.34;;;7.50;100.00
43818;BME280;29868;47.360;18.984;2024-02-14T17:15:56;62193.56;;;7.44;100.00
43818;BME280;29868;47.360;18.984;2024-02-14T17:18:22;62182.66;;;7.36;100.00
43818;BME280;29868;47.360;18.984;2024-02-14T17:20:48;62174.88;;;7.29;100.00
43818;BME280;29868;47.360;18.984;2024-02-14T17:23:14;62179.09;;;7.30;100.00
43818;BME280;29868;47.360;18.984;2024-02-14T17:25:40;62184.88;;;7.38;100.00
43818;BME280;29868;47.360;18.984;2024-02-14T17:28:06;62187.66;;;7.41;100.00
43818;BME280;29868;47.360;18.984;2024-02-14T17:30:32;62195.00;;;7.43;100.00
43818;BME280;29868;47.360;18.984;2024-02-14T17:32:58;62197.47;;;7.47;100.00
43818;BME280;29868;47.360;18.984;2024-02-14T17:35:24;62194.91;;;7.47;100.00
43818;BME280;29868;47.360;18.984;2024-02-14T17:37:49;62201.13;;;7.48;100.00
43818;BME280;29868;47.360;18.984;2024-02-14T17:40:15;62213.38;;;7.60;100.00
43818;BME280;29868;47.360;18.984;2024-02-14T17:42:40;62210.47;;;7.62;100.00
43818;BME280;29868;47.360;18.984;2024-02-14T17:45:06;62213.38;;;7.60;100.00
43818;BME280;29868;47.360;18.984;2024-02-14T17:47:32;62203.78;;;7.55;100.00
43818;BME280;29868;47.360;18.984;2024-02-14T17:49:59;62218.25;;;7.69;100.00
43818;BME280;29868;47.360;18.984;2024-02-14T17:52:27;62220.50;;;7.71;100.00
43818;BME280;29868;47.360;18.984;2024-02-14T17:54:53;62219.94;;;7.70;100.00
43818;BME280;29868;47.360;18.984;2024-02-14T17:57:20;62222.28;;;7.68;100.00
43818;BME280;29868;47.360;18.984;2024-02-14T17:59:47;62214.72;;;7.63;100.00
43818;BME280;29868;47.360;18.984;2024-02-14T18:02:12;62200.81;;;7.50;100.00
43818;BME280;29868;47.360;18.984;2024-02-14T18:04:38;62205.34;;;7.50;100.00
43818;BME280;29868;47.360;18.984;2024-02-14T18:07:03;62203.69;;;7.48;100.00
43818;BME280;29868;47.360;18.984;2024-02-14T18:09:29;62192.22;;;7.40;100.00
43818;BME280;29868;47.360;18.984;2024-02-14T18:11:54;62184.09;;;7.35;100.00
43818;BME280;29868;47.360;18.984;2024-02-14T18:14:20;62185.22;;;7.36;100.00
43818;BME280;29868;47.360;18.984;2024-02-14T18:16:45;62175.97;;;7.30;100.00
43818;BME280;29868;47.360;18.984;2024-02-14T18:19:11;62167.41;;;7.20;100.00
43818;BME280;29868;47.360;18.984;2024-02-14T18:21:36;62158.19;;;7.14;100.00
43818;BME280;29868;47.360;18.984;2024-02-14T18:24:02;62150.72;;;7.04;100.00
43818;BME280;29868;47.360;18.984;2024-02-14T18:26:27;62145.50;;;6.97;100.00
43818;BME280;29868;47.360;18.984;2024-02-14T18:28:53;62146.59;;;6.98;100.00
43818;BME280;29868;47.360;18.984;2024-02-14T18:31:18;62140.81;;;6.91;100.00
43818;BME280;29868;47.360;18.984;2024-02-14T18:33:43;62115.03;;;6.76;100.00
43818;BME280;29868;47.360;18.984;2024-02-14T18:36:09;62110.91;;;6.70;100.00
43818;BME280;29868;47.360;18.984;2024-02-14T18:38:35;62106.25;;;6.64;100.00
43818;BME280;29868;47.360;18.984;2024-02-14T18:41:01;62107.69;;;6.63;100.00
43818;BME280;29868;47.360;18.984;2024-02-14T18:43:27;62100.13;;;6.58;100.00
43818;BME280;29868;47.360;18.984;2024-02-14T18:45:53;62091.00;;;6.47;100.00
43818;BME280;29868;47.360;18.984;2024-02-14T18:48:19;62082.22;;;6.46;100.00
43818;BME280;29868;47.360;18.984;2024-02-14T18:50:44;62089.56;;;6.48;100.00
43818;BME280;29868;47.360;18.984;2024-02-14T18:53:10;62088.78;;;6.45;100.00
43818;BME280;29868;47.360;18.984;2024-02-14T18:55:35;62076.69;;;6.41;100.00
43818;BME280;29868;47.360;18.984;2024-02-14T18:58:00;62071.44;;;6.34;100.00
43818;BME280;29868;47.360;18.984;2024-02-14T19:00:26;62076.88;;;6.32;100.00
43818;BME280;29868;47.360;18.984;2024-02-14T19:02:52;62069.56;;;6.30;100.00
43818;BME280;29868;47.360;18.984;2024-02-14T19:05:17;62072.13;;;6.30;100.00
43818;BME280;29868;47.360;18.984;2024-02-14T19:07:42;62062.56;;;6.26;100.00
43818;BME280;29868;47.360;18.984;2024-02-14T19:10:08;62069.09;;;6.25;100.00
43818;BME280;29868;47.360;18.984;2024-02-14T19:12:36;62060.66;;;6.22;100.00
43818;BME280;29868;47.360;18.984;2024-02-14T19:15:01;62064.00;;;6.25;100.00
43818;BME280;29868;47.360;18.984;2024-02-14T19:17:32;62061.44;;;6.25;100.00
43818;BME280;29868;47.360;18.984;2024-02-14T19:19:59;62058.44;;;6.20;100.00
43818;BME280;29868;47.360;18.984;2024-02-14T19:22:28;62061.53;;;6.20;100.00
43818;BME280;29868;47.360;18.984;2024-02-14T19:24:53;62061.66;;;6.16;100.00
43818;BME280;29868;47.360;18.984;2024-02-14T19:27:19;62046.22;;;6.08;100.00
43818;BME280;29868;47.360;18.984;2024-02-14T19:29:44;62037.88;;;6.01;100.00
43818;BME280;29868;47.360;18.984;2024-02-14T19:32:09;62039.56;;;6.02;100.00
43818;BME280;29868;47.360;18.984;2024-02-14T19:34:35;62030.66;;;5.94;100.00
43818;BME280;29868;47.360;18.984;2024-02-14T19:37:00;62020.28;;;5.87;100.00
43818;BME280;29868;47.360;18.984;2024-02-14T19:39:25;62013.66;;;5.81;100.00
43818;BME280;29868;47.360;18.984;2024-02-14T19:41:51;62001.44;;;5.70;100.00
43818;BME280;29868;47.360;18.984;2024-02-14T19:44:16;61993.22;;;5.57;100.00
43818;BME280;29868;47.360;18.984;2024-02-14T19:46:42;61970.31;;;5.41;100.00
43818;BME280;29868;47.360;18.984;2024-02-14T19:49:07;61962.09;;;5.29;100.00
43818;BME280;29868;47.360;18.984;2024-02-14T19:51:34;61950.69;;;5.21;100.00
43818;BME280;29868;47.360;18.984;2024-02-14T19:54:00;61942.91;;;5.13;100.00
43818;BME280;29868;47.360;18.984;2024-02-14T19:56:26;61940.69;;;5.11;100.00
43818;BME280;29868;47.360;18.984;2024-02-14T19:58:53;61934.81;;;5.08;100.00
43818;BME280;29868;47.360;18.984;2024-02-14T20:01:18;61936.56;;;5.05;100.00
43818;BME280;29868;47.360;18.984;2024-02-14T20:03:44;61934.91;;;5.04;100.00
43818;BME280;29868;47.360;18.984;2024-02-14T20:06:11;61935.13;;;5.06;100.00
43818;BME280;29868;47.360;18.984;2024-02-14T20:08:36;61930.69;;;5.02;100.00
43818;BME280;29868;47.360;18.984;2024-02-14T20:11:03;61927.34;;;4.99;100.00
43818;BME280;29868;47.360;18.984;2024-02-14T20:13:30;61926.03;;;4.96;100.00
43818;BME280;29868;47.360;18.984;2024-02-14T20:15:57;61922.91;;;4.95;100.00
43818;BME280;29868;47.360;18.984;2024-02-14T20:18:23;61915.94;;;4.91;100.00
43818;BME280;29868;47.360;18.984;2024-02-14T20:20:48;61912.38;;;4.85;100.00
43818;BME280;29868;47.360;18.984;2024-02-14T20:23:14;61913.16;;;4.88;100.00
43818;BME280;29868;47.360;18.984;2024-02-14T20:25:39;61914.03;;;4.87;100.00
43818;BME280;29868;47.360;18.984;2024-02-14T20:28:05;61912.03;;;4.87;100.00
43818;BME280;29868;47.360;18.984;2024-02-14T20:30:30;61930.38;;;5.04;100.00
43818;BME280;29868;47.360;18.984;2024-02-14T20:32:56;61915.16;;;4.88;100.00
43818;BME280;29868;47.360;18.984;2024-02-14T20:35:24;61892.97;;;4.68;100.00
43818;BME280;29868;47.360;18.984;2024-02-14T20:37:49;61882.97;;;4.58;100.00
43818;BME280;29868;47.360;18.984;2024-02-14T20:40:15;61866.31;;;4.43;100.00
43818;BME280;29868;47.360;18.984;2024-02-14T20:42:42;61854.47;;;4.30;100.00
43818;BME280;29868;47.360;18.984;2024-02-14T20:45:08;61838.38;;;4.15;100.00
43818;BME280;29868;47.360;18.984;2024-02-14T20:47:33;61825.75;;;4.10;100.00
43818;BME280;29868;47.360;18.984;2024-02-14T20:49:59;61824.75;;;4.05;100.00
43818;BME280;29868;47.360;18.984;2024-02-14T20:52:24;61804.69;;;3.91;100.00
43818;BME280;29868;47.360;18.984;2024-02-14T20:54:55;61792.81;;;3.78;100.00
43818;BME280;29868;47.360;18.984;2024-02-14T20:57:21;61790.28;;;3.78;100.00
43818;BME280;29868;47.360;18.984;2024-02-14T20:59:46;61792.38;;;3.73;100.00
43818;BME280;29868;47.360;18.984;2024-02-14T21:02:12;61784.59;;;3.65;100.00
43818;BME280;29868;47.360;18.984;2024-02-14T21:04:38;61773.75;;;3.58;100.00
43818;BME280;29868;47.360;18.984;2024-02-14T21:07:04;61759.13;;;3.42;100.00
43818;BME280;29868;47.360;18.984;2024-02-14T21:09:29;61751.03;;;3.37;100.00
43818;BME280;29868;47.360;18.984;2024-02-14T21:11:55;61732.75;;;3.20;100.00
43818;BME280;29868;47.360;18.984;2024-02-14T21:14:20;61727.78;;;3.15;100.00
43818;BME280;29868;47.360;18.984;2024-02-14T21:16:46;61721.91;;;3.12;100.00
43818;BME280;29868;47.360;18.984;2024-02-14T21:19:11;61719.69;;;3.10;100.00
43818;BME280;29868;47.360;18.984;2024-02-14T21:21:37;61714.69;;;3.06;100.00
43818;BME280;29868;47.360;18.984;2024-02-14T21:24:03;61708.63;;;3.00;100.00
